Terminal Aerodrome Forecast
Issued by NWS Charleston, WV

Current Version | Previous Version | Graphics & Text | Print | Product List | Glossary On
Versions: 1 2 3 4 5 6 7 8 9 10 11 12 13 14 15 16 17 18 19 20 21 22 23 24 25
000
FTUS41 KRLX 141154 CCA
TAFEKN
TAF COR
KEKN 141154Z 1412/1512 15005KT 4SM -RA BKN005 OVC015
     FM141400 17005KT 2SM -RA OVC008
     FM142000 VRB03KT 2SM -RA OVC005
     FM150200 VRB03KT 2SM -RA OVC003=

USA.gov is the U.S. government's official web portal to all federal, state and local government web resources and services.